Time;durP1;ratioP1;P1;durP2;ratioP2;P2;SDS_P1;SDS_P2;PMS_P1;PMS_P2;Temp;Humidity;BMP_temperature;BMP_pressure;BME280_temperature;BME280_humidity;BME280_pressure;Samples;Min_cycle;Max_cycle;Signal;HPM_P1;HPM_P2
2022/04/10 00:05:10;;;;;;;1.20;0.50;;;;;;;;;;20305046;29;20087;-80
2022/04/10 00:15:12;;;;;;;0.98;0.30;;;;;;;;;;20311371;29;20421;-79
2022/04/10 00:25:18;;;;;;;1.23;0.45;;;;;;;;;;20332861;29;20059;-80
2022/04/10 00:35:20;;;;;;;0.20;0.20;;;;;;;;;;20344736;29;20044;-79
2022/04/10 00:45:22;;;;;;;0.98;0.40;;;;;;;;;;20278254;29;20843;-80
2022/04/10 00:55:24;;;;;;;0.55;0.35;;;;;;;;;;20259449;29;20060;-80
2022/04/10 01:05:26;;;;;;;0.50;0.40;;;;;;;;;;20294584;29;20499;-80
2022/04/10 01:15:28;;;;;;;0.70;0.30;;;;;;;;;;20303272;29;20500;-81
2022/04/10 01:25:30;;;;;;;1.65;0.75;;;;;;;;;;20279123;29;20049;-80
2022/04/10 01:35:34;;;;;;;1.73;0.45;;;;;;;;;;20280687;29;20289;-81
2022/04/10 01:45:36;;;;;;;1.17;0.50;;;;;;;;;;20294474;29;20851;-79
2022/04/10 01:55:38;;;;;;;1.85;0.40;;;;;;;;;;20262573;29;20055;-79
2022/04/10 02:05:44;;;;;;;0.90;0.40;;;;;;;;;;20260613;29;20069;-80
2022/04/10 02:15:46;;;;;;;1.02;0.40;;;;;;;;;;20288538;29;20105;-79
2022/04/10 02:25:48;;;;;;;0.68;0.40;;;;;;;;;;20278859;29;20064;-79
2022/04/10 02:35:50;;;;;;;0.60;0.50;;;;;;;;;;20277133;29;20072;-80
2022/04/10 02:45:53;;;;;;;0.90;0.55;;;;;;;;;;20275773;29;20140;-80
2022/04/10 02:55:56;;;;;;;1.70;0.50;;;;;;;;;;20302548;29;20074;-79
2022/04/10 03:05:57;;;;;;;1.05;0.50;;;;;;;;;;20303408;29;20092;-79
2022/04/10 03:16:00;;;;;;;1.15;0.57;;;;;;;;;;20296085;29;20071;-79
2022/04/10 03:26:04;;;;;;;0.90;0.50;;;;;;;;;;20302571;29;20076;-79
2022/04/10 03:36:06;;;;;;;0.90;0.40;;;;;;;;;;20297904;29;20107;-79
2022/04/10 03:46:08;;;;;;;1.42;0.57;;;;;;;;;;20282277;29;20051;-78
2022/04/10 03:56:10;;;;;;;0.50;0.40;;;;;;;;;;20279073;29;20048;-79
2022/04/10 04:06:13;;;;;;;1.85;0.60;;;;;;;;;;20278777;29;20056;-80
2022/04/10 04:16:15;;;;;;;0.70;0.47;;;;;;;;;;20288730;29;20056;-80
2022/04/10 04:26:17;;;;;;;1.15;0.88;;;;;;;;;;20264326;29;20056;-81
2022/04/10 04:36:20;;;;;;;1.70;0.80;;;;;;;;;;20316035;29;20113;-81
2022/04/10 04:46:22;;;;;;;0.80;0.77;;;;;;;;;;20304334;29;20079;-81
2022/04/10 04:56:24;;;;;;;0.75;0.28;;;;;;;;;;20287872;29;20059;-81
2022/04/10 05:06:27;;;;;;;0.98;0.40;;;;;;;;;;20253733;29;20456;-81
2022/04/10 05:16:30;;;;;;;0.65;0.30;;;;;;;;;;20221658;29;20411;-81
2022/04/10 05:26:33;;;;;;;1.17;0.52;;;;;;;;;;20200587;29;20045;-81
2022/04/10 05:36:36;;;;;;;0.93;0.68;;;;;;;;;;20204739;29;20510;-81
2022/04/10 05:46:38;;;;;;;1.15;0.32;;;;;;;;;;20229284;29;20075;-80
2022/04/10 05:56:49;;;;;;;0.98;0.30;;;;;;;;;;20245643;28;20048;-80
2022/04/10 06:06:52;;;;;;;1.13;0.50;;;;;;;;;;20284590;29;20052;-80
2022/04/10 06:17:07;;;;;;;0.57;0.57;;;;;;;;;;20280037;29;20059;-81
2022/04/10 06:27:10;;;;;;;0.28;0.28;;;;;;;;;;20320373;29;20324;-81
2022/04/10 06:37:12;;;;;;;1.23;0.50;;;;;;;;;;20321325;29;20055;-80
2022/04/10 06:47:14;;;;;;;1.20;0.47;;;;;;;;;;20319719;29;20507;-81
2022/04/10 06:57:17;;;;;;;0.95;0.30;;;;;;;;;;20262566;29;20487;-81
2022/04/10 07:07:20;;;;;;;0.77;0.40;;;;;;;;;;20258424;29;20048;-82
2022/04/10 07:17:22;;;;;;;0.85;0.30;;;;;;;;;;20323265;29;20070;-82
2022/04/10 07:27:30;;;;;;;0.98;0.40;;;;;;;;;;20274917;29;20087;-81
2022/04/10 07:37:45;;;;;;;0.40;0.20;;;;;;;;;;20287564;29;20091;-81
2022/04/10 07:47:47;;;;;;;0.22;0.20;;;;;;;;;;20279049;29;20053;-80
2022/04/10 07:57:49;;;;;;;1.05;0.40;;;;;;;;;;20258304;29;20055;-81
2022/04/10 08:07:51;;;;;;;1.27;0.30;;;;;;;;;;20274720;29;20136;-80
2022/04/10 08:17:55;;;;;;;1.27;0.80;;;;;;;;;;20273756;29;20112;-83
2022/04/10 08:27:57;;;;;;;0.82;0.40;;;;;;;;;;20241461;29;20131;-83
2022/04/10 08:37:59;;;;;;;0.93;0.40;;;;;;;;;;20272353;29;20059;-82
2022/04/10 08:48:02;;;;;;;0.40;0.30;;;;;;;;;;20270375;29;20143;-85
2022/04/10 08:58:05;;;;;;;1.13;0.30;;;;;;;;;;20270592;29;20056;-83
2022/04/10 09:08:10;;;;;;;0.52;0.45;;;;;;;;;;20270541;29;20056;-83
2022/04/10 09:18:12;;;;;;;1.97;0.33;;;;;;;;;;20269226;29;20503;-83
2022/04/10 09:28:14;;;;;;;2.35;0.43;;;;;;;;;;20266879;29;20104;-83
2022/04/10 09:38:28;;;;;;;0.90;0.40;;;;;;;;;;20282209;29;20056;-83
2022/04/10 09:48:30;;;;;;;1.30;0.30;;;;;;;;;;20281762;29;20048;-82
2022/04/10 09:58:33;;;;;;;0.82;0.40;;;;;;;;;;20265935;29;20078;-82
2022/04/10 10:08:34;;;;;;;1.63;0.50;;;;;;;;;;20250336;29;20652;-83
2022/04/10 10:18:36;;;;;;;0.57;0.40;;;;;;;;;;20279471;29;20055;-82
2022/04/10 10:28:56;;;;;;;2.25;0.50;;;;;;;;;;20247850;29;20055;-81
2022/04/10 10:38:58;;;;;;;1.00;0.52;;;;;;;;;;20278603;29;20040;-81
2022/04/10 10:49:14;;;;;;;1.67;0.40;;;;;;;;;;20247000;29;20052;-81
2022/04/10 10:59:35;;;;;;;2.42;0.70;;;;;;;;;;20261674;29;20061;-80
2022/04/10 11:09:46;;;;;;;1.70;0.60;;;;;;;;;;20265507;29;20049;-81
2022/04/10 11:19:49;;;;;;;1.08;0.40;;;;;;;;;;20279411;29;20077;-81
2022/04/10 11:30:02;;;;;;;1.13;0.52;;;;;;;;;;20277178;29;20044;-81
2022/04/10 11:40:04;;;;;;;2.05;0.70;;;;;;;;;;20291236;29;20058;-82
2022/04/10 11:50:07;;;;;;;1.85;0.60;;;;;;;;;;20259315;29;20057;-81
2022/04/10 12:00:10;;;;;;;1.33;0.75;;;;;;;;;;20274752;29;20052;-81
2022/04/10 12:10:16;;;;;;;1.35;0.50;;;;;;;;;;20288929;29;20506;-81
2022/04/10 12:20:21;;;;;;;1.17;0.50;;;;;;;;;;20273468;29;20059;-81
2022/04/10 12:30:24;;;;;;;2.20;0.90;;;;;;;;;;20271565;29;20507;-81
2022/04/10 12:40:27;;;;;;;0.63;0.47;;;;;;;;;;20286732;29;20055;-80
2022/04/10 12:50:29;;;;;;;0.50;0.32;;;;;;;;;;20271422;29;20052;-81
2022/04/10 13:00:31;;;;;;;2.50;0.77;;;;;;;;;;20270339;29;20056;-81
2022/04/10 13:10:47;;;;;;;1.10;0.77;;;;;;;;;;20269978;29;20080;-81
2022/04/10 13:20:50;;;;;;;1.70;0.50;;;;;;;;;;20252774;29;20109;-81
2022/04/10 13:30:52;;;;;;;1.58;0.50;;;;;;;;;;20268684;29;20049;-81
2022/04/10 13:40:54;;;;;;;1.02;0.43;;;;;;;;;;20267542;29;20067;-80
2022/04/10 13:50:57;;;;;;;1.40;0.63;;;;;;;;;;20266679;29;20510;-80
2022/04/10 14:00:59;;;;;;;1.85;0.63;;;;;;;;;;20249497;29;20048;-80
2022/04/10 14:11:02;;;;;;;1.10;0.38;;;;;;;;;;20248790;29;20411;-80
2022/04/10 14:21:03;;;;;;;1.83;0.60;;;;;;;;;;20263987;29;20059;-81
2022/04/10 14:31:06;;;;;;;2.60;0.60;;;;;;;;;;20264756;29;20055;-80
2022/04/10 14:41:08;;;;;;;1.35;0.60;;;;;;;;;;20264383;29;20424;-80
2022/04/10 14:51:10;;;;;;;0.55;0.55;;;;;;;;;;20278459;29;20047;-80
2022/04/10 15:01:12;;;;;;;1.40;0.60;;;;;;;;;;20276683;29;20048;-81
2022/04/10 15:11:14;;;;;;;0.57;0.40;;;;;;;;;;20278648;29;20077;-81
2022/04/10 15:21:16;;;;;;;1.55;0.50;;;;;;;;;;20292486;29;20053;-80
2022/04/10 15:31:17;;;;;;;1.23;0.50;;;;;;;;;;20291598;29;20501;-80
2022/04/10 15:41:19;;;;;;;1.10;0.50;;;;;;;;;;20290986;29;20048;-80
2022/04/10 15:51:21;;;;;;;1.33;0.57;;;;;;;;;;20259118;29;20056;-80
2022/04/10 16:01:25;;;;;;;1.38;0.43;;;;;;;;;;20289125;29;20518;-79
2022/04/10 16:11:27;;;;;;;3.00;0.70;;;;;;;;;;20260197;29;20061;-81
2022/04/10 16:21:29;;;;;;;1.33;0.57;;;;;;;;;;20256466;29;20422;-81
2022/04/10 16:31:30;;;;;;;1.10;0.50;;;;;;;;;;20256519;29;20144;-80
2022/04/10 16:41:32;;;;;;;0.60;0.40;;;;;;;;;;20314150;29;20059;-80
2022/04/10 16:51:34;;;;;;;1.17;0.40;;;;;;;;;;20317162;29;20522;-80
2022/04/10 17:01:36;;;;;;;0.45;0.25;;;;;;;;;;20316539;28;20081;-80
2022/04/10 17:11:39;;;;;;;1.05;0.40;;;;;;;;;;20330495;29;20064;-80
2022/04/10 17:21:41;;;;;;;0.45;0.35;;;;;;;;;;20347171;29;20088;-80
2022/04/10 17:31:43;;;;;;;0.52;0.40;;;;;;;;;;20329621;29;20040;-80
2022/04/10 17:41:45;;;;;;;0.43;0.40;;;;;;;;;;20296280;29;20048;-79
2022/04/10 17:51:46;;;;;;;0.30;0.30;;;;;;;;;;20296142;29;20055;-81
2022/04/10 18:01:50;;;;;;;0.52;0.30;;;;;;;;;;20326814;29;20060;-80
2022/04/10 18:11:52;;;;;;;0.50;0.30;;;;;;;;;;20303022;29;20051;-81
2022/04/10 18:21:54;;;;;;;0.77;0.63;;;;;;;;;;20258635;29;20530;-82
2022/04/10 18:31:56;;;;;;;0.70;0.25;;;;;;;;;;20276160;29;20471;-80
2022/04/10 18:41:58;;;;;;;1.13;0.40;;;;;;;;;;20281228;29;20707;-81
2022/04/10 18:52:01;;;;;;;0.40;0.20;;;;;;;;;;20285044;29;20064;-81
2022/04/10 19:02:03;;;;;;;0.35;0.35;;;;;;;;;;20291511;29;20075;-81
2022/04/10 19:12:05;;;;;;;1.48;0.50;;;;;;;;;;20314343;29;20060;-81
2022/04/10 19:22:07;;;;;;;0.30;0.22;;;;;;;;;;20288125;29;20048;-80
2022/04/10 19:32:09;;;;;;;0.65;0.40;;;;;;;;;;20353194;29;20067;-82
2022/04/10 19:42:13;;;;;;;0.75;0.30;;;;;;;;;;20298582;29;20041;-81
2022/04/10 19:52:15;;;;;;;0.32;0.30;;;;;;;;;;20331576;29;20419;-82
2022/04/10 20:02:17;;;;;;;0.80;0.30;;;;;;;;;;20262057;29;20056;-82
2022/04/10 20:12:19;;;;;;;0.70;0.32;;;;;;;;;;20328355;29;20104;-83
2022/04/10 20:22:21;;;;;;;0.32;0.20;;;;;;;;;;20301735;29;20398;-81
2022/04/10 20:32:22;;;;;;;0.30;0.20;;;;;;;;;;20290150;29;20051;-81
2022/04/10 20:42:25;;;;;;;0.30;0.22;;;;;;;;;;20299553;29;20460;-81
2022/04/10 20:52:27;;;;;;;0.30;0.30;;;;;;;;;;20272903;29;20056;-81
2022/04/10 21:02:29;;;;;;;1.05;0.40;;;;;;;;;;20296251;29;20418;-81
2022/04/10 21:12:31;;;;;;;0.80;0.40;;;;;;;;;;20268306;29;20051;-84
2022/04/10 21:22:33;;;;;;;1.05;0.40;;;;;;;;;;20315878;29;20059;-83
2022/04/10 21:32:35;;;;;;;0.63;0.35;;;;;;;;;;20299998;29;20052;-83
2022/04/10 21:42:37;;;;;;;0.88;0.40;;;;;;;;;;20277739;29;20502;-83
2022/04/10 21:52:38;;;;;;;0.32;0.32;;;;;;;;;;20283133;29;20107;-82
2022/04/10 22:02:40;;;;;;;0.25;0.25;;;;;;;;;;20271632;29;20168;-82
2022/04/10 22:12:42;;;;;;;0.35;0.30;;;;;;;;;;20294561;29;20124;-82
2022/04/10 22:22:44;;;;;;;0.57;0.38;;;;;;;;;;20270537;29;20519;-82
2022/04/10 22:32:46;;;;;;;0.65;0.38;;;;;;;;;;20302228;29;20082;-82
2022/04/10 22:42:47;;;;;;;0.77;0.40;;;;;;;;;;20300068;29;20506;-80
2022/04/10 22:52:49;;;;;;;0.80;0.47;;;;;;;;;;20273219;29;20529;-81
2022/04/10 23:02:51;;;;;;;0.73;0.30;;;;;;;;;;20300940;29;20489;-81
2022/04/10 23:12:53;;;;;;;0.60;0.40;;;;;;;;;;20317902;29;20045;-81
2022/04/10 23:22:54;;;;;;;0.70;0.40;;;;;;;;;;20303658;29;20479;-81
2022/04/10 23:32:56;;;;;;;0.50;0.30;;;;;;;;;;20299994;29;20419;-81
2022/04/10 23:42:58;;;;;;;1.08;0.43;;;;;;;;;;20301024;29;20173;-81
2022/04/10 23:52:59;;;;;;;0.50;0.45;;;;;;;;;;20303304;29;20040;-81
